sensor_id;sensor_type;location;lat;lon;timestamp;P1;durP1;ratioP1;P2;durP2;ratioP2
13590;SDS011;6866;50.778;7.206;2023-04-25T00:01:35;10.70;;;4.28;;
13590;SDS011;6866;50.778;7.206;2023-04-25T00:04:02;14.38;;;4.50;;
13590;SDS011;6866;50.778;7.206;2023-04-25T00:06:28;15.50;;;4.30;;
13590;SDS011;6866;50.778;7.206;2023-04-25T00:08:54;16.45;;;5.43;;
13590;SDS011;6866;50.778;7.206;2023-04-25T00:11:21;17.15;;;4.40;;
13590;SDS011;6866;50.778;7.206;2023-04-25T00:13:47;15.65;;;4.60;;
13590;SDS011;6866;50.778;7.206;2023-04-25T00:16:13;14.90;;;5.03;;
13590;SDS011;6866;50.778;7.206;2023-04-25T00:18:41;17.10;;;5.55;;
13590;SDS011;6866;50.778;7.206;2023-04-25T00:21:06;19.30;;;5.00;;
13590;SDS011;6866;50.778;7.206;2023-04-25T00:23:32;16.83;;;5.00;;
13590;SDS011;6866;50.778;7.206;2023-04-25T00:25:58;17.17;;;6.15;;
13590;SDS011;6866;50.778;7.206;2023-04-25T00:28:23;19.20;;;6.03;;
13590;SDS011;6866;50.778;7.206;2023-04-25T00:30:49;17.98;;;4.45;;
13590;SDS011;6866;50.778;7.206;2023-04-25T00:33:15;12.32;;;4.10;;
13590;SDS011;6866;50.778;7.206;2023-04-25T00:35:41;14.02;;;4.28;;
13590;SDS011;6866;50.778;7.206;2023-04-25T00:38:07;12.20;;;4.25;;
13590;SDS011;6866;50.778;7.206;2023-04-25T00:40:32;16.55;;;4.97;;
13590;SDS011;6866;50.778;7.206;2023-04-25T00:42:58;15.60;;;4.55;;
13590;SDS011;6866;50.778;7.206;2023-04-25T00:45:27;16.80;;;4.63;;
13590;SDS011;6866;50.778;7.206;2023-04-25T00:47:54;10.45;;;4.43;;
13590;SDS011;6866;50.778;7.206;2023-04-25T00:50:20;13.02;;;4.25;;
13590;SDS011;6866;50.778;7.206;2023-04-25T00:52:45;14.68;;;4.38;;
13590;SDS011;6866;50.778;7.206;2023-04-25T00:55:11;10.35;;;4.28;;
13590;SDS011;6866;50.778;7.206;2023-04-25T00:57:38;14.10;;;4.80;;
13590;SDS011;6866;50.778;7.206;2023-04-25T01:05:21;18.63;;;5.65;;
13590;SDS011;6866;50.778;7.206;2023-04-25T01:07:47;15.80;;;5.13;;
13590;SDS011;6866;50.778;7.206;2023-04-25T01:10:12;17.08;;;5.07;;
13590;SDS011;6866;50.778;7.206;2023-04-25T01:12:38;15.50;;;5.38;;
13590;SDS011;6866;50.778;7.206;2023-04-25T01:15:04;17.88;;;5.45;;
13590;SDS011;6866;50.778;7.206;2023-04-25T01:17:29;13.82;;;4.93;;
13590;SDS011;6866;50.778;7.206;2023-04-25T01:19:56;13.13;;;4.90;;
13590;SDS011;6866;50.778;7.206;2023-04-25T01:22:22;16.65;;;5.10;;
13590;SDS011;6866;50.778;7.206;2023-04-25T01:24:47;16.70;;;5.50;;
13590;SDS011;6866;50.778;7.206;2023-04-25T01:27:13;13.38;;;5.30;;
13590;SDS011;6866;50.778;7.206;2023-04-25T01:29:40;17.88;;;5.47;;
13590;SDS011;6866;50.778;7.206;2023-04-25T01:32:06;13.90;;;5.28;;
13590;SDS011;6866;50.778;7.206;2023-04-25T01:34:32;15.30;;;5.60;;
13590;SDS011;6866;50.778;7.206;2023-04-25T01:36:59;15.50;;;5.47;;
13590;SDS011;6866;50.778;7.206;2023-04-25T01:39:25;15.73;;;6.07;;
13590;SDS011;6866;50.778;7.206;2023-04-25T01:41:51;15.45;;;5.30;;
13590;SDS011;6866;50.778;7.206;2023-04-25T01:44:16;13.82;;;5.28;;
13590;SDS011;6866;50.778;7.206;2023-04-25T01:46:42;14.57;;;5.88;;
13590;SDS011;6866;50.778;7.206;2023-04-25T01:49:08;20.45;;;5.78;;
13590;SDS011;6866;50.778;7.206;2023-04-25T01:51:33;20.73;;;5.25;;
13590;SDS011;6866;50.778;7.206;2023-04-25T01:53:59;16.80;;;5.03;;
13590;SDS011;6866;50.778;7.206;2023-04-25T01:56:29;14.30;;;5.10;;
13590;SDS011;6866;50.778;7.206;2023-04-25T01:58:56;16.95;;;4.97;;
13590;SDS011;6866;50.778;7.206;2023-04-25T02:01:22;16.42;;;5.47;;
13590;SDS011;6866;50.778;7.206;2023-04-25T02:03:47;14.23;;;5.70;;
13590;SDS011;6866;50.778;7.206;2023-04-25T02:06:13;14.35;;;4.90;;
13590;SDS011;6866;50.778;7.206;2023-04-25T02:08:38;19.60;;;6.13;;
13590;SDS011;6866;50.778;7.206;2023-04-25T02:11:04;13.93;;;5.15;;
13590;SDS011;6866;50.778;7.206;2023-04-25T02:13:30;19.52;;;5.82;;
13590;SDS011;6866;50.778;7.206;2023-04-25T02:15:55;17.85;;;5.88;;
13590;SDS011;6866;50.778;7.206;2023-04-25T02:18:21;20.45;;;6.47;;
13590;SDS011;6866;50.778;7.206;2023-04-25T02:20:47;16.35;;;5.65;;
13590;SDS011;6866;50.778;7.206;2023-04-25T02:23:12;20.38;;;5.82;;
13590;SDS011;6866;50.778;7.206;2023-04-25T02:25:40;14.88;;;5.97;;
13590;SDS011;6866;50.778;7.206;2023-04-25T02:28:06;22.33;;;5.65;;
13590;SDS011;6866;50.778;7.206;2023-04-25T02:30:31;16.55;;;4.97;;
13590;SDS011;6866;50.778;7.206;2023-04-25T02:32:57;18.80;;;5.43;;
13590;SDS011;6866;50.778;7.206;2023-04-25T02:35:22;15.57;;;5.28;;
13590;SDS011;6866;50.778;7.206;2023-04-25T02:37:48;18.40;;;5.80;;
13590;SDS011;6866;50.778;7.206;2023-04-25T02:40:13;23.90;;;6.07;;
13590;SDS011;6866;50.778;7.206;2023-04-25T02:42:39;18.48;;;6.47;;
13590;SDS011;6866;50.778;7.206;2023-04-25T02:45:05;16.38;;;5.07;;
13590;SDS011;6866;50.778;7.206;2023-04-25T02:47:30;18.85;;;5.32;;
13590;SDS011;6866;50.778;7.206;2023-04-25T02:49:56;19.85;;;5.75;;
13590;SDS011;6866;50.778;7.206;2023-04-25T02:52:22;18.75;;;5.30;;
13590;SDS011;6866;50.778;7.206;2023-04-25T02:54:47;17.25;;;5.40;;
13590;SDS011;6866;50.778;7.206;2023-04-25T02:57:13;22.67;;;5.78;;
13590;SDS011;6866;50.778;7.206;2023-04-25T02:59:38;16.77;;;5.35;;
13590;SDS011;6866;50.778;7.206;2023-04-25T03:02:04;19.88;;;5.90;;
13590;SDS011;6866;50.778;7.206;2023-04-25T03:04:29;19.45;;;6.38;;
13590;SDS011;6866;50.778;7.206;2023-04-25T03:06:55;23.48;;;6.18;;
13590;SDS011;6866;50.778;7.206;2023-04-25T03:09:21;21.75;;;5.72;;
13590;SDS011;6866;50.778;7.206;2023-04-25T03:11:46;15.88;;;5.53;;
13590;SDS011;6866;50.778;7.206;2023-04-25T03:14:12;19.70;;;5.82;;
13590;SDS011;6866;50.778;7.206;2023-04-25T03:16:38;24.88;;;7.10;;
13590;SDS011;6866;50.778;7.206;2023-04-25T03:19:04;15.15;;;5.38;;
13590;SDS011;6866;50.778;7.206;2023-04-25T03:21:30;15.90;;;5.78;;
13590;SDS011;6866;50.778;7.206;2023-04-25T03:23:57;22.08;;;6.07;;
13590;SDS011;6866;50.778;7.206;2023-04-25T03:26:23;23.45;;;6.05;;
13590;SDS011;6866;50.778;7.206;2023-04-25T03:28:49;18.67;;;6.25;;
13590;SDS011;6866;50.778;7.206;2023-04-25T03:31:14;13.23;;;5.20;;
13590;SDS011;6866;50.778;7.206;2023-04-25T03:33:40;16.45;;;5.90;;
13590;SDS011;6866;50.778;7.206;2023-04-25T03:36:06;17.58;;;5.13;;
13590;SDS011;6866;50.778;7.206;2023-04-25T03:38:32;15.32;;;5.75;;
13590;SDS011;6866;50.778;7.206;2023-04-25T03:40:57;16.13;;;5.65;;
13590;SDS011;6866;50.778;7.206;2023-04-25T03:43:23;22.08;;;5.90;;
13590;SDS011;6866;50.778;7.206;2023-04-25T03:45:48;18.63;;;5.38;;
13590;SDS011;6866;50.778;7.206;2023-04-25T03:48:14;21.23;;;6.20;;
13590;SDS011;6866;50.778;7.206;2023-04-25T03:50:40;18.35;;;5.88;;
13590;SDS011;6866;50.778;7.206;2023-04-25T03:53:05;17.80;;;5.43;;
13590;SDS011;6866;50.778;7.206;2023-04-25T03:55:31;16.83;;;5.82;;
13590;SDS011;6866;50.778;7.206;2023-04-25T03:57:57;21.08;;;5.43;;
13590;SDS011;6866;50.778;7.206;2023-04-25T04:00:23;17.05;;;4.90;;
13590;SDS011;6866;50.778;7.206;2023-04-25T04:02:50;17.05;;;5.13;;
13590;SDS011;6866;50.778;7.206;2023-04-25T04:05:15;19.40;;;5.55;;
13590;SDS011;6866;50.778;7.206;2023-04-25T04:07:41;21.90;;;5.55;;
13590;SDS011;6866;50.778;7.206;2023-04-25T04:10:08;14.23;;;5.18;;
13590;SDS011;6866;50.778;7.206;2023-04-25T04:12:37;14.90;;;5.38;;
13590;SDS011;6866;50.778;7.206;2023-04-25T04:15:05;15.13;;;5.05;;
13590;SDS011;6866;50.778;7.206;2023-04-25T04:17:32;19.70;;;5.63;;
13590;SDS011;6866;50.778;7.206;2023-04-25T04:19:58;20.38;;;5.68;;
13590;SDS011;6866;50.778;7.206;2023-04-25T04:22:23;16.95;;;5.47;;
13590;SDS011;6866;50.778;7.206;2023-04-25T04:24:50;18.42;;;6.00;;
13590;SDS011;6866;50.778;7.206;2023-04-25T04:27:17;22.23;;;6.00;;
13590;SDS011;6866;50.778;7.206;2023-04-25T04:29:43;17.60;;;5.97;;
13590;SDS011;6866;50.778;7.206;2023-04-25T04:32:08;17.38;;;6.15;;
13590;SDS011;6866;50.778;7.206;2023-04-25T04:34:34;18.10;;;6.43;;
13590;SDS011;6866;50.778;7.206;2023-04-25T04:37:00;20.85;;;6.20;;
13590;SDS011;6866;50.778;7.206;2023-04-25T04:39:26;20.50;;;6.43;;
13590;SDS011;6866;50.778;7.206;2023-04-25T04:41:51;20.63;;;7.22;;
13590;SDS011;6866;50.778;7.206;2023-04-25T04:44:17;19.77;;;6.63;;
13590;SDS011;6866;50.778;7.206;2023-04-25T04:46:43;21.23;;;7.13;;
13590;SDS011;6866;50.778;7.206;2023-04-25T04:49:09;22.02;;;7.35;;
13590;SDS011;6866;50.778;7.206;2023-04-25T04:51:35;18.77;;;6.22;;
13590;SDS011;6866;50.778;7.206;2023-04-25T04:54:01;18.60;;;7.65;;
13590;SDS011;6866;50.778;7.206;2023-04-25T04:56:28;15.68;;;5.63;;
13590;SDS011;6866;50.778;7.206;2023-04-25T04:58:55;18.98;;;6.43;;
13590;SDS011;6866;50.778;7.206;2023-04-25T05:01:21;21.00;;;6.55;;
13590;SDS011;6866;50.778;7.206;2023-04-25T05:03:47;16.08;;;5.97;;
13590;SDS011;6866;50.778;7.206;2023-04-25T05:06:13;18.30;;;6.13;;
13590;SDS011;6866;50.778;7.206;2023-04-25T05:08:38;19.85;;;6.47;;
13590;SDS011;6866;50.778;7.206;2023-04-25T05:11:04;19.85;;;6.13;;
13590;SDS011;6866;50.778;7.206;2023-04-25T05:13:30;23.88;;;6.65;;
13590;SDS011;6866;50.778;7.206;2023-04-25T05:15:56;19.50;;;6.10;;
13590;SDS011;6866;50.778;7.206;2023-04-25T05:18:21;17.33;;;6.07;;
13590;SDS011;6866;50.778;7.206;2023-04-25T05:20:47;17.23;;;6.78;;
13590;SDS011;6866;50.778;7.206;2023-04-25T05:23:12;20.73;;;5.75;;
13590;SDS011;6866;50.778;7.206;2023-04-25T05:25:38;24.65;;;6.20;;
13590;SDS011;6866;50.778;7.206;2023-04-25T05:28:04;17.50;;;6.10;;
13590;SDS011;6866;50.778;7.206;2023-04-25T05:30:30;25.73;;;6.22;;
13590;SDS011;6866;50.778;7.206;2023-04-25T05:32:56;19.33;;;6.15;;
13590;SDS011;6866;50.778;7.206;2023-04-25T05:35:21;21.92;;;6.50;;
13590;SDS011;6866;50.778;7.206;2023-04-25T05:37:47;17.92;;;6.15;;
13590;SDS011;6866;50.778;7.206;2023-04-25T05:40:12;19.80;;;6.60;;
13590;SDS011;6866;50.778;7.206;2023-04-25T05:42:38;18.13;;;6.28;;
13590;SDS011;6866;50.778;7.206;2023-04-25T05:45:04;20.23;;;6.40;;
13590;SDS011;6866;50.778;7.206;2023-04-25T05:47:30;20.45;;;6.57;;
13590;SDS011;6866;50.778;7.206;2023-04-25T05:49:55;20.25;;;6.47;;
13590;SDS011;6866;50.778;7.206;2023-04-25T05:52:21;20.50;;;6.20;;
13590;SDS011;6866;50.778;7.206;2023-04-25T05:54:47;19.02;;;6.03;;
13590;SDS011;6866;50.778;7.206;2023-04-25T05:57:22;28.50;;;6.60;;
13590;SDS011;6866;50.778;7.206;2023-04-25T05:59:49;17.85;;;5.80;;
13590;SDS011;6866;50.778;7.206;2023-04-25T06:02:15;18.90;;;5.75;;
13590;SDS011;6866;50.778;7.206;2023-04-25T06:04:41;21.17;;;5.40;;
13590;SDS011;6866;50.778;7.206;2023-04-25T06:07:07;20.13;;;6.47;;
13590;SDS011;6866;50.778;7.206;2023-04-25T06:09:32;16.45;;;5.38;;
13590;SDS011;6866;50.778;7.206;2023-04-25T06:11:58;28.80;;;6.47;;
13590;SDS011;6866;50.778;7.206;2023-04-25T06:14:24;23.30;;;6.00;;
13590;SDS011;6866;50.778;7.206;2023-04-25T06:16:49;20.50;;;5.93;;
13590;SDS011;6866;50.778;7.206;2023-04-25T06:19:15;17.48;;;6.00;;
13590;SDS011;6866;50.778;7.206;2023-04-25T06:21:41;19.08;;;5.97;;
13590;SDS011;6866;50.778;7.206;2023-04-25T06:24:08;24.42;;;6.82;;
13590;SDS011;6866;50.778;7.206;2023-04-25T06:26:33;20.85;;;5.80;;
13590;SDS011;6866;50.778;7.206;2023-04-25T06:28:59;20.95;;;5.78;;
13590;SDS011;6866;50.778;7.206;2023-04-25T06:31:24;21.83;;;6.10;;
13590;SDS011;6866;50.778;7.206;2023-04-25T06:33:50;21.50;;;6.32;;
13590;SDS011;6866;50.778;7.206;2023-04-25T06:36:19;28.02;;;7.25;;
13590;SDS011;6866;50.778;7.206;2023-04-25T06:38:49;22.65;;;6.32;;
13590;SDS011;6866;50.778;7.206;2023-04-25T06:41:18;20.08;;;6.45;;
13590;SDS011;6866;50.778;7.206;2023-04-25T06:43:43;19.38;;;6.60;;
13590;SDS011;6866;50.778;7.206;2023-04-25T06:46:09;20.13;;;6.63;;
13590;SDS011;6866;50.778;7.206;2023-04-25T06:48:35;20.50;;;6.18;;
13590;SDS011;6866;50.778;7.206;2023-04-25T06:51:01;22.92;;;6.35;;
13590;SDS011;6866;50.778;7.206;2023-04-25T06:53:27;19.02;;;6.18;;
13590;SDS011;6866;50.778;7.206;2023-04-25T06:55:52;23.65;;;6.20;;
13590;SDS011;6866;50.778;7.206;2023-04-25T06:58:18;18.63;;;5.57;;
13590;SDS011;6866;50.778;7.206;2023-04-25T07:00:44;23.77;;;5.75;;
13590;SDS011;6866;50.778;7.206;2023-04-25T07:03:09;23.10;;;5.45;;
13590;SDS011;6866;50.778;7.206;2023-04-25T07:05:35;18.77;;;5.38;;
13590;SDS011;6866;50.778;7.206;2023-04-25T07:08:00;20.13;;;4.90;;
13590;SDS011;6866;50.778;7.206;2023-04-25T07:10:26;17.80;;;4.85;;
13590;SDS011;6866;50.778;7.206;2023-04-25T07:12:51;17.27;;;5.85;;
13590;SDS011;6866;50.778;7.206;2023-04-25T07:15:17;19.98;;;4.85;;
13590;SDS011;6866;50.778;7.206;2023-04-25T07:17:42;16.13;;;4.38;;
13590;SDS011;6866;50.778;7.206;2023-04-25T07:22:34;13.50;;;4.10;;
13590;SDS011;6866;50.778;7.206;2023-04-25T07:25:00;17.52;;;4.57;;
13590;SDS011;6866;50.778;7.206;2023-04-25T07:27:26;15.68;;;4.32;;
13590;SDS011;6866;50.778;7.206;2023-04-25T07:29:51;13.13;;;3.70;;
13590;SDS011;6866;50.778;7.206;2023-04-25T07:32:17;14.88;;;3.78;;
13590;SDS011;6866;50.778;7.206;2023-04-25T07:34:42;16.42;;;4.32;;
13590;SDS011;6866;50.778;7.206;2023-04-25T07:37:08;18.73;;;4.82;;
13590;SDS011;6866;50.778;7.206;2023-04-25T07:39:34;17.50;;;4.60;;
13590;SDS011;6866;50.778;7.206;2023-04-25T07:42:00;14.65;;;4.13;;
13590;SDS011;6866;50.778;7.206;2023-04-25T07:44:27;15.63;;;3.72;;
13590;SDS011;6866;50.778;7.206;2023-04-25T07:46:52;17.35;;;3.78;;
13590;SDS011;6866;50.778;7.206;2023-04-25T07:49:18;16.75;;;4.38;;
13590;SDS011;6866;50.778;7.206;2023-04-25T07:51:43;20.55;;;4.63;;
13590;SDS011;6866;50.778;7.206;2023-04-25T07:54:10;14.73;;;4.47;;
13590;SDS011;6866;50.778;7.206;2023-04-25T07:56:40;16.97;;;4.00;;
13590;SDS011;6866;50.778;7.206;2023-04-25T07:59:05;14.43;;;3.90;;
13590;SDS011;6866;50.778;7.206;2023-04-25T08:01:31;17.85;;;3.90;;
13590;SDS011;6866;50.778;7.206;2023-04-25T08:03:57;14.55;;;3.92;;
13590;SDS011;6866;50.778;7.206;2023-04-25T08:06:22;16.35;;;4.80;;
13590;SDS011;6866;50.778;7.206;2023-04-25T08:08:48;17.60;;;3.78;;
13590;SDS011;6866;50.778;7.206;2023-04-25T08:11:13;15.13;;;4.13;;
13590;SDS011;6866;50.778;7.206;2023-04-25T08:13:39;17.83;;;3.95;;
13590;SDS011;6866;50.778;7.206;2023-04-25T08:16:04;15.40;;;4.00;;
13590;SDS011;6866;50.778;7.206;2023-04-25T08:18:30;17.25;;;3.50;;
13590;SDS011;6866;50.778;7.206;2023-04-25T08:20:55;15.20;;;3.70;;
13590;SDS011;6866;50.778;7.206;2023-04-25T08:23:21;16.95;;;4.35;;
13590;SDS011;6866;50.778;7.206;2023-04-25T08:25:47;16.05;;;3.90;;
13590;SDS011;6866;50.778;7.206;2023-04-25T08:28:12;17.63;;;4.05;;
13590;SDS011;6866;50.778;7.206;2023-04-25T08:30:40;15.13;;;3.33;;
13590;SDS011;6866;50.778;7.206;2023-04-25T08:33:05;13.85;;;3.88;;
13590;SDS011;6866;50.778;7.206;2023-04-25T08:35:31;10.95;;;3.65;;
13590;SDS011;6866;50.778;7.206;2023-04-25T08:37:58;15.95;;;3.70;;
13590;SDS011;6866;50.778;7.206;2023-04-25T08:40:23;16.40;;;3.67;;
13590;SDS011;6866;50.778;7.206;2023-04-25T08:42:54;17.80;;;4.03;;
13590;SDS011;6866;50.778;7.206;2023-04-25T08:45:22;15.77;;;4.57;;
13590;SDS011;6866;50.778;7.206;2023-04-25T08:47:47;15.27;;;3.67;;
13590;SDS011;6866;50.778;7.206;2023-04-25T08:50:16;17.15;;;3.75;;
13590;SDS011;6866;50.778;7.206;2023-04-25T08:52:45;16.90;;;3.67;;
13590;SDS011;6866;50.778;7.206;2023-04-25T08:55:13;12.13;;;3.50;;
13590;SDS011;6866;50.778;7.206;2023-04-25T08:57:39;16.85;;;3.42;;
13590;SDS011;6866;50.778;7.206;2023-04-25T09:00:08;17.25;;;3.83;;
13590;SDS011;6866;50.778;7.206;2023-04-25T09:02:34;12.05;;;2.90;;
13590;SDS011;6866;50.778;7.206;2023-04-25T09:05:01;14.50;;;3.45;;
13590;SDS011;6866;50.778;7.206;2023-04-25T09:07:29;12.23;;;3.53;;
13590;SDS011;6866;50.778;7.206;2023-04-25T09:09:55;11.10;;;2.88;;
13590;SDS011;6866;50.778;7.206;2023-04-25T09:12:20;8.73;;;2.80;;
13590;SDS011;6866;50.778;7.206;2023-04-25T09:15:06;9.13;;;3.20;;
13590;SDS011;6866;50.778;7.206;2023-04-25T09:17:36;11.55;;;3.40;;
13590;SDS011;6866;50.778;7.206;2023-04-25T09:20:05;15.07;;;3.33;;
13590;SDS011;6866;50.778;7.206;2023-04-25T09:22:36;12.00;;;3.45;;
13590;SDS011;6866;50.778;7.206;2023-04-25T09:25:02;9.55;;;3.08;;
13590;SDS011;6866;50.778;7.206;2023-04-25T09:27:48;14.38;;;2.97;;
13590;SDS011;6866;50.778;7.206;2023-04-25T09:30:17;13.80;;;2.78;;
13590;SDS011;6866;50.778;7.206;2023-04-25T09:32:43;14.95;;;3.08;;
13590;SDS011;6866;50.778;7.206;2023-04-25T09:35:10;15.10;;;3.28;;
13590;SDS011;6866;50.778;7.206;2023-04-25T09:37:36;13.52;;;2.78;;
13590;SDS011;6866;50.778;7.206;2023-04-25T09:40:05;19.42;;;3.05;;
13590;SDS011;6866;50.778;7.206;2023-04-25T09:42:32;17.55;;;3.35;;
13590;SDS011;6866;50.778;7.206;2023-04-25T09:45:00;10.23;;;2.45;;
13590;SDS011;6866;50.778;7.206;2023-04-25T09:47:28;14.25;;;2.92;;
13590;SDS011;6866;50.778;7.206;2023-04-25T09:49:54;13.30;;;2.67;;
13590;SDS011;6866;50.778;7.206;2023-04-25T09:52:21;8.73;;;2.58;;
13590;SDS011;6866;50.778;7.206;2023-04-25T09:54:49;20.70;;;2.83;;
13590;SDS011;6866;50.778;7.206;2023-04-25T09:57:20;15.55;;;3.15;;
13590;SDS011;6866;50.778;7.206;2023-04-25T09:59:48;8.32;;;2.13;;
13590;SDS011;6866;50.778;7.206;2023-04-25T10:02:16;10.65;;;2.50;;
13590;SDS011;6866;50.778;7.206;2023-04-25T10:04:44;11.80;;;2.50;;
13590;SDS011;6866;50.778;7.206;2023-04-25T10:07:13;9.98;;;2.53;;
13590;SDS011;6866;50.778;7.206;2023-04-25T10:09:39;8.20;;;2.38;;
13590;SDS011;6866;50.778;7.206;2023-04-25T10:12:06;13.60;;;3.13;;
13590;SDS011;6866;50.778;7.206;2023-04-25T10:14:32;14.60;;;2.67;;
13590;SDS011;6866;50.778;7.206;2023-04-25T10:16:59;12.18;;;3.13;;
13590;SDS011;6866;50.778;7.206;2023-04-25T10:19:25;12.15;;;2.90;;
13590;SDS011;6866;50.778;7.206;2023-04-25T10:21:55;11.63;;;2.80;;
13590;SDS011;6866;50.778;7.206;2023-04-25T10:24:22;14.80;;;2.57;;
13590;SDS011;6866;50.778;7.206;2023-04-25T10:26:49;10.82;;;2.70;;
13590;SDS011;6866;50.778;7.206;2023-04-25T10:29:25;14.95;;;2.72;;
13590;SDS011;6866;50.778;7.206;2023-04-25T10:31:51;13.93;;;3.00;;
13590;SDS011;6866;50.778;7.206;2023-04-25T10:34:17;12.30;;;2.90;;
13590;SDS011;6866;50.778;7.206;2023-04-25T10:36:44;9.00;;;2.60;;
13590;SDS011;6866;50.778;7.206;2023-04-25T10:39:20;12.20;;;2.72;;
13590;SDS011;6866;50.778;7.206;2023-04-25T10:41:58;14.48;;;2.92;;
13590;SDS011;6866;50.778;7.206;2023-04-25T10:44:27;12.45;;;2.70;;
13590;SDS011;6866;50.778;7.206;2023-04-25T10:46:57;11.05;;;2.97;;
13590;SDS011;6866;50.778;7.206;2023-04-25T10:49:34;10.48;;;2.63;;
13590;SDS011;6866;50.778;7.206;2023-04-25T10:52:16;9.05;;;2.47;;
13590;SDS011;6866;50.778;7.206;2023-04-25T10:54:52;12.50;;;2.60;;
13590;SDS011;6866;50.778;7.206;2023-04-25T10:57:28;10.80;;;2.30;;
13590;SDS011;6866;50.778;7.206;2023-04-25T11:02:37;14.23;;;2.58;;
13590;SDS011;6866;50.778;7.206;2023-04-25T11:05:05;10.50;;;2.60;;
13590;SDS011;6866;50.778;7.206;2023-04-25T11:07:44;12.50;;;2.70;;
13590;SDS011;6866;50.778;7.206;2023-04-25T11:10:16;11.43;;;2.42;;
13590;SDS011;6866;50.778;7.206;2023-04-25T11:12:42;9.20;;;2.83;;
13590;SDS011;6866;50.778;7.206;2023-04-25T11:15:08;11.77;;;2.63;;
13590;SDS011;6866;50.778;7.206;2023-04-25T11:17:34;9.90;;;2.72;;
13590;SDS011;6866;50.778;7.206;2023-04-25T11:20:00;12.25;;;2.85;;
13590;SDS011;6866;50.778;7.206;2023-04-25T11:22:28;10.57;;;2.75;;
13590;SDS011;6866;50.778;7.206;2023-04-25T11:24:54;12.50;;;3.17;;
13590;SDS011;6866;50.778;7.206;2023-04-25T11:27:20;12.68;;;3.22;;
13590;SDS011;6866;50.778;7.206;2023-04-25T11:29:46;10.68;;;2.63;;
13590;SDS011;6866;50.778;7.206;2023-04-25T11:32:13;12.23;;;2.70;;
13590;SDS011;6866;50.778;7.206;2023-04-25T11:34:43;16.30;;;3.05;;
13590;SDS011;6866;50.778;7.206;2023-04-25T11:37:10;9.45;;;2.40;;
13590;SDS011;6866;50.778;7.206;2023-04-25T11:39:37;10.77;;;2.60;;
13590;SDS011;6866;50.778;7.206;2023-04-25T11:42:03;7.60;;;1.90;;
13590;SDS011;6866;50.778;7.206;2023-04-25T11:44:30;11.15;;;2.38;;
13590;SDS011;6866;50.778;7.206;2023-04-25T11:46:56;13.35;;;2.55;;
13590;SDS011;6866;50.778;7.206;2023-04-25T11:49:21;10.32;;;2.35;;
13590;SDS011;6866;50.778;7.206;2023-04-25T11:51:49;13.10;;;2.75;;
13590;SDS011;6866;50.778;7.206;2023-04-25T11:54:15;10.48;;;2.08;;
13590;SDS011;6866;50.778;7.206;2023-04-25T11:56:41;10.55;;;2.60;;
13590;SDS011;6866;50.778;7.206;2023-04-25T11:59:10;12.57;;;2.63;;
13590;SDS011;6866;50.778;7.206;2023-04-25T12:01:37;7.72;;;1.92;;
13590;SDS011;6866;50.778;7.206;2023-04-25T12:04:11;8.30;;;1.98;;
13590;SDS011;6866;50.778;7.206;2023-04-25T12:06:38;12.63;;;2.55;;
13590;SDS011;6866;50.778;7.206;2023-04-25T12:09:06;9.65;;;2.17;;
13590;SDS011;6866;50.778;7.206;2023-04-25T12:11:40;12.10;;;2.88;;
13590;SDS011;6866;50.778;7.206;2023-04-25T12:14:07;7.07;;;2.08;;
13590;SDS011;6866;50.778;7.206;2023-04-25T12:16:54;8.48;;;1.90;;
13590;SDS011;6866;50.778;7.206;2023-04-25T12:19:25;8.15;;;2.25;;
13590;SDS011;6866;50.778;7.206;2023-04-25T12:21:56;10.88;;;2.03;;
13590;SDS011;6866;50.778;7.206;2023-04-25T12:24:23;10.60;;;2.45;;
13590;SDS011;6866;50.778;7.206;2023-04-25T12:26:55;12.70;;;2.13;;
13590;SDS011;6866;50.778;7.206;2023-04-25T12:29:30;10.23;;;2.30;;
13590;SDS011;6866;50.778;7.206;2023-04-25T12:31:58;6.30;;;2.10;;
13590;SDS011;6866;50.778;7.206;2023-04-25T12:34:24;11.35;;;2.20;;
13590;SDS011;6866;50.778;7.206;2023-04-25T12:36:50;8.55;;;1.90;;
13590;SDS011;6866;50.778;7.206;2023-04-25T12:39:20;7.22;;;2.00;;
13590;SDS011;6866;50.778;7.206;2023-04-25T12:41:47;10.75;;;1.80;;
13590;SDS011;6866;50.778;7.206;2023-04-25T12:44:13;8.00;;;1.75;;
13590;SDS011;6866;50.778;7.206;2023-04-25T12:46:39;10.63;;;2.20;;
13590;SDS011;6866;50.778;7.206;2023-04-25T12:49:08;12.10;;;2.55;;
13590;SDS011;6866;50.778;7.206;2023-04-25T12:51:34;6.95;;;1.95;;
13590;SDS011;6866;50.778;7.206;2023-04-25T12:54:00;6.13;;;1.77;;
13590;SDS011;6866;50.778;7.206;2023-04-25T12:56:27;8.70;;;1.95;;
13590;SDS011;6866;50.778;7.206;2023-04-25T12:58:53;8.80;;;2.08;;
13590;SDS011;6866;50.778;7.206;2023-04-25T13:01:19;9.35;;;2.70;;
13590;SDS011;6866;50.778;7.206;2023-04-25T13:03:48;10.60;;;2.50;;
13590;SDS011;6866;50.778;7.206;2023-04-25T13:06:14;6.97;;;2.10;;
13590;SDS011;6866;50.778;7.206;2023-04-25T13:08:41;6.50;;;2.20;;
13590;SDS011;6866;50.778;7.206;2023-04-25T13:11:07;9.85;;;2.20;;
13590;SDS011;6866;50.778;7.206;2023-04-25T13:13:33;7.93;;;1.85;;
13590;SDS011;6866;50.778;7.206;2023-04-25T13:16:00;7.15;;;2.08;;
13590;SDS011;6866;50.778;7.206;2023-04-25T13:18:26;6.60;;;1.80;;
13590;SDS011;6866;50.778;7.206;2023-04-25T13:20:53;6.88;;;1.70;;
13590;SDS011;6866;50.778;7.206;2023-04-25T13:23:19;8.07;;;1.90;;
13590;SDS011;6866;50.778;7.206;2023-04-25T13:25:46;11.95;;;2.35;;
13590;SDS011;6866;50.778;7.206;2023-04-25T13:28:12;7.75;;;1.85;;
13590;SDS011;6866;50.778;7.206;2023-04-25T13:30:37;8.90;;;2.03;;
13590;SDS011;6866;50.778;7.206;2023-04-25T13:33:03;10.65;;;1.60;;
13590;SDS011;6866;50.778;7.206;2023-04-25T13:35:29;7.18;;;1.73;;
13590;SDS011;6866;50.778;7.206;2023-04-25T13:37:55;7.25;;;1.55;;
13590;SDS011;6866;50.778;7.206;2023-04-25T13:40:21;8.57;;;2.20;;
13590;SDS011;6866;50.778;7.206;2023-04-25T13:42:47;6.22;;;1.75;;
13590;SDS011;6866;50.778;7.206;2023-04-25T13:45:12;8.38;;;1.77;;
13590;SDS011;6866;50.778;7.206;2023-04-25T13:47:38;5.80;;;1.58;;
13590;SDS011;6866;50.778;7.206;2023-04-25T13:50:04;6.25;;;1.80;;
13590;SDS011;6866;50.778;7.206;2023-04-25T13:52:30;11.10;;;2.35;;
13590;SDS011;6866;50.778;7.206;2023-04-25T13:54:56;12.10;;;2.58;;
13590;SDS011;6866;50.778;7.206;2023-04-25T13:57:22;5.40;;;1.75;;
13590;SDS011;6866;50.778;7.206;2023-04-25T13:59:48;7.28;;;1.67;;
13590;SDS011;6866;50.778;7.206;2023-04-25T14:02:13;7.63;;;2.00;;
13590;SDS011;6866;50.778;7.206;2023-04-25T14:04:40;6.28;;;1.75;;
13590;SDS011;6866;50.778;7.206;2023-04-25T14:07:05;7.45;;;1.92;;
13590;SDS011;6866;50.778;7.206;2023-04-25T14:09:31;6.93;;;2.00;;
13590;SDS011;6866;50.778;7.206;2023-04-25T14:11:57;6.65;;;1.92;;
13590;SDS011;6866;50.778;7.206;2023-04-25T14:14:22;7.38;;;1.88;;
13590;SDS011;6866;50.778;7.206;2023-04-25T14:16:48;7.03;;;1.70;;
13590;SDS011;6866;50.778;7.206;2023-04-25T14:19:15;5.93;;;1.75;;
13590;SDS011;6866;50.778;7.206;2023-04-25T14:21:41;8.07;;;1.88;;
13590;SDS011;6866;50.778;7.206;2023-04-25T14:24:08;8.57;;;1.90;;
13590;SDS011;6866;50.778;7.206;2023-04-25T14:26:34;4.00;;;1.40;;
13590;SDS011;6866;50.778;7.206;2023-04-25T14:29:05;6.05;;;1.70;;
13590;SDS011;6866;50.778;7.206;2023-04-25T14:31:32;6.45;;;1.70;;
13590;SDS011;6866;50.778;7.206;2023-04-25T14:33:58;5.47;;;1.55;;
13590;SDS011;6866;50.778;7.206;2023-04-25T14:36:24;7.13;;;1.60;;
13590;SDS011;6866;50.778;7.206;2023-04-25T14:38:51;6.03;;;1.73;;
13590;SDS011;6866;50.778;7.206;2023-04-25T14:41:17;5.97;;;1.60;;
13590;SDS011;6866;50.778;7.206;2023-04-25T14:43:42;7.65;;;1.65;;
13590;SDS011;6866;50.778;7.206;2023-04-25T14:46:09;5.07;;;1.55;;
13590;SDS011;6866;50.778;7.206;2023-04-25T14:48:35;4.82;;;1.33;;
13590;SDS011;6866;50.778;7.206;2023-04-25T14:51:01;4.70;;;1.42;;
13590;SDS011;6866;50.778;7.206;2023-04-25T14:53:27;8.13;;;1.55;;
13590;SDS011;6866;50.778;7.206;2023-04-25T14:55:52;3.95;;;1.58;;
13590;SDS011;6866;50.778;7.206;2023-04-25T14:58:18;5.45;;;1.55;;